Pays
Station

 

Conditions  météo  pour  Crotone  -  Italie    Italie

  
22 °C
    
 
 

METAR pour Crotone :

LIBC 231150Z 07007KT 030V110 9999 SCT025 22/17 Q1014

 

Voici le bulletin pour Crotone - Italie.
 
Le bulletin a été fait il y a 44 minutes, à 11:50 UTC .
Le vent soufflait à la vitesse de 3.6 mètres par seconde de Est/Nord-est (070°), variant entre Nord/Nord-est (030°) et Est/Sud-est (110°).
 
La température était de 22 °C, avec un point de rosée à 17 °C.
La température ressentie était de 23 °C.
 
La pression atmosphérique était de 1014 hPa.
L'humidité relative était de 73.3%.
 
Il y avait 3 à 4/8ème de nébulosité à une hauteur de 762 mètres.
 
La visibilité globale était de supérieure à 10 kilomètres.
 

 
 
 

Pays :   A   B   C   D   E   F   G   H   I   J   K   L   M   N   O   P   Q   R   S   T   U   V   W   Y   Z

 

Partenaires :  Info Météo avec Met'info
Météo Marine avec MeteoMarine.net
Infos Site  |  Infos Légales  |  Crédits  |  Confidentialité
Contactez-nous  |  Ajouter aux favoris
© 2013-2018 METAR - Tous droits réservés